Jayton, Texas
Current Conditions -  °F | °C
As of 6:15 AM on Thursday 23 Oct 2014 (Local Time) from KSNK Reporting Station
Broken Clouds Broken Clouds  
Wind Chill: 14°   Ceiling: 1400
Heat Index: 14°   Visibility: 10mi
Dew Point: 12°   Wind: 5mph
Humidity: 91%   Direction: 180°S
Pressure: 30.13"   Gusts: NA
Location:  33.25°N, 100.57°W
Report Text: KSNK 231115Z AUTO 18004KT 10SM BKN014 14/12 A3013 RMK AO2 T01380124
Loading
Personal Weather Stations






























Interactive Weather Map
Tropical Storm Tracking
New forecast layout! Learn more

10-Day Weather Forecast

Advertisements
Track Severe Weather on mobile